Time;durP1;ratioP1;P1;durP2;ratioP2;P2;SDS_P1;SDS_P2;PMS_P1;PMS_P2;Temp;Humidity;BMP_temperature;BMP_pressure;BME280_temperature;BME280_humidity;BME280_pressure;Samples;Min_cycle;Max_cycle;Signal;HPM_P1;HPM_P2
2021/08/07 00:01:27;;;;;;;30.10;18.55;;;;;;;;;;5039991;28;20044;-76
2021/08/07 00:03:55;;;;;;;28.50;15.32;;;;;;;;;;5032143;28;20033;-77
2021/08/07 00:06:22;;;;;;;23.67;13.73;;;;;;;;;;5022143;28;20032;-77
2021/08/07 00:08:51;;;;;;;25.05;14.93;;;;;;;;;;5041915;28;20411;-76
2021/08/07 00:11:19;;;;;;;23.42;14.25;;;;;;;;;;5038321;28;20056;-75
2021/08/07 00:13:47;;;;;;;28.27;14.02;;;;;;;;;;5040834;28;20044;-77
2021/08/07 00:16:14;;;;;;;27.48;13.32;;;;;;;;;;5039747;28;20041;-76
2021/08/07 00:18:43;;;;;;;26.20;14.43;;;;;;;;;;5040028;28;20052;-76
2021/08/07 00:21:10;;;;;;;23.58;13.70;;;;;;;;;;5038082;28;20057;-77
2021/08/07 00:23:37;;;;;;;27.90;14.52;;;;;;;;;;5037877;28;20053;-76
2021/08/07 00:26:04;;;;;;;25.13;14.43;;;;;;;;;;5038848;28;20045;-75
2021/08/07 00:28:32;;;;;;;29.92;15.18;;;;;;;;;;5038886;28;20040;-76
2021/08/07 00:31:00;;;;;;;26.13;13.77;;;;;;;;;;5004898;28;20040;-77
2021/08/07 00:33:37;;;;;;;25.92;14.18;;;;;;;;;;5011453;28;22822;-77
2021/08/07 00:36:05;;;;;;;27.63;13.05;;;;;;;;;;4996237;28;20082;-77
2021/08/07 00:38:32;;;;;;;24.05;14.13;;;;;;;;;;5045316;28;20511;-76
2021/08/07 00:41:01;;;;;;;26.00;14.15;;;;;;;;;;5045846;28;20037;-77
2021/08/07 00:43:29;;;;;;;24.30;13.55;;;;;;;;;;5041047;28;20064;-76
2021/08/07 00:45:56;;;;;;;26.80;14.90;;;;;;;;;;5037584;28;20037;-76
2021/08/07 00:48:24;;;;;;;26.75;14.40;;;;;;;;;;5037329;28;20132;-77
2021/08/07 00:50:54;;;;;;;27.05;15.20;;;;;;;;;;5038814;28;20498;-77
2021/08/07 00:53:26;;;;;;;30.80;18.00;;;;;;;;;;5042495;28;20044;-75
2021/08/07 00:55:53;;;;;;;28.83;16.25;;;;;;;;;;5035210;28;20483;-76
2021/08/07 00:58:20;;;;;;;30.10;17.05;;;;;;;;;;5038554;28;20057;-77
2021/08/07 01:00:48;;;;;;;26.55;15.52;;;;;;;;;;5034106;28;20049;-76
2021/08/07 01:03:20;;;;;;;35.22;18.98;;;;;;;;;;5006392;28;20051;-75
2021/08/07 01:06:29;;;;;;;30.45;18.25;;;;;;;;;;5047891;28;20045;-76
2021/08/07 01:09:20;;;;;;;33.10;18.90;;;;;;;;;;5005864;28;20045;-73
2021/08/07 01:12:02;;;;;;;30.75;18.83;;;;;;;;;;5032390;28;20517;-73
2021/08/07 01:14:41;;;;;;;28.30;16.77;;;;;;;;;;5040915;28;20049;-76
2021/08/07 01:17:14;;;;;;;26.17;16.33;;;;;;;;;;5040219;28;20474;-73
2021/08/07 01:20:16;;;;;;;28.15;16.40;;;;;;;;;;5040341;28;20059;-73
2021/08/07 01:22:45;;;;;;;34.30;19.70;;;;;;;;;;5038878;28;20045;-73
2021/08/07 01:25:17;;;;;;;34.05;20.48;;;;;;;;;;5053290;28;20045;-75
2021/08/07 01:27:46;;;;;;;59.88;40.35;;;;;;;;;;5041971;28;20119;-73
2021/08/07 01:30:17;;;;;;;38.17;23.30;;;;;;;;;;5041778;28;20539;-77
2021/08/07 01:32:45;;;;;;;43.15;28.20;;;;;;;;;;5040192;28;20042;-73
2021/08/07 01:35:12;;;;;;;;;;;;;;;;;;5042784;28;20284;-73
2021/08/07 01:37:39;;;;;;;;;;;;;;;;;;5039979;28;19994;-75
2021/08/07 01:40:07;;;;;;;32.30;20.30;;;;;;;;;;5029362;28;20004;-74
2021/08/07 01:42:34;;;;;;;32.03;20.25;;;;;;;;;;5037397;28;20488;-74
2021/08/07 01:45:04;;;;;;;44.10;26.92;;;;;;;;;;5039868;28;20068;-77
2021/08/07 01:47:49;;;;;;;59.78;36.72;;;;;;;;;;5040582;28;20045;-73
2021/08/07 01:50:33;;;;;;;60.88;36.92;;;;;;;;;;4990336;28;21059;-76
2021/08/07 01:53:05;;;;;;;71.28;45.58;;;;;;;;;;5033839;28;20124;-77
2021/08/07 01:55:45;;;;;;;65.95;40.20;;;;;;;;;;5041539;28;20507;-74
2021/08/07 01:58:24;;;;;;;75.65;46.67;;;;;;;;;;5030721;28;20045;-74
2021/08/07 02:00:56;;;;;;;68.45;43.53;;;;;;;;;;5036520;28;20052;-74
2021/08/07 02:03:25;;;;;;;70.70;46.30;;;;;;;;;;5040432;28;20052;-73
2021/08/07 02:05:53;;;;;;;63.58;41.05;;;;;;;;;;5050527;28;20093;-75
2021/08/07 02:08:20;;;;;;;62.50;41.78;;;;;;;;;;5071132;28;20043;-75
2021/08/07 02:10:49;;;;;;;54.17;35.13;;;;;;;;;;5062420;28;20052;-74
2021/08/07 02:13:18;;;;;;;73.28;46.42;;;;;;;;;;5061926;28;20062;-74
2021/08/07 02:15:48;;;;;;;77.72;49.25;;;;;;;;;;5062232;28;20075;-74
2021/08/07 02:18:20;;;;;;;81.43;47.05;;;;;;;;;;5062039;28;20438;-76
2021/08/07 02:20:49;;;;;;;72.07;44.75;;;;;;;;;;5060619;28;20059;-75
2021/08/07 02:23:17;;;;;;;71.35;46.47;;;;;;;;;;5063420;28;20044;-74
2021/08/07 02:26:07;;;;;;;76.20;48.78;;;;;;;;;;5059670;28;20120;-74
2021/08/07 02:28:35;;;;;;;73.32;44.55;;;;;;;;;;5058070;28;20072;-75
2021/08/07 02:31:04;;;;;;;64.85;41.70;;;;;;;;;;5044578;28;20104;-75
2021/08/07 02:33:31;;;;;;;62.65;39.13;;;;;;;;;;5062839;28;20123;-77
2021/08/07 02:36:01;;;;;;;62.58;40.47;;;;;;;;;;5062286;28;20065;-74
2021/08/07 02:38:30;;;;;;;59.95;37.92;;;;;;;;;;5060367;28;20045;-77
2021/08/07 02:41:02;;;;;;;66.15;40.60;;;;;;;;;;5048055;28;20068;-74
2021/08/07 02:43:30;;;;;;;65.63;42.67;;;;;;;;;;5041130;28;20398;-75
2021/08/07 02:45:59;;;;;;;76.20;49.55;;;;;;;;;;5042067;28;20049;-75
2021/08/07 02:48:28;;;;;;;64.03;43.53;;;;;;;;;;5065239;28;20384;-74
2021/08/07 02:50:55;;;;;;;58.55;38.63;;;;;;;;;;5069468;28;20045;-74
2021/08/07 02:53:24;;;;;;;56.85;36.05;;;;;;;;;;5040545;28;20371;-74
2021/08/07 02:55:52;;;;;;;53.72;32.95;;;;;;;;;;5058283;28;20442;-74
2021/08/07 02:58:22;;;;;;;60.42;37.15;;;;;;;;;;5060748;28;20506;-74
2021/08/07 03:00:49;;;;;;;57.95;37.45;;;;;;;;;;5061698;28;20422;-73
2021/08/07 03:03:16;;;;;;;52.72;34.60;;;;;;;;;;5058906;28;20475;-74
2021/08/07 03:05:44;;;;;;;55.42;35.20;;;;;;;;;;5046187;28;20081;-73
2021/08/07 03:08:11;;;;;;;60.67;36.47;;;;;;;;;;5054112;28;20128;-75
2021/08/07 03:10:38;;;;;;;52.92;32.50;;;;;;;;;;5064517;28;20043;-74
2021/08/07 03:13:06;;;;;;;51.00;32.15;;;;;;;;;;5062441;28;20498;-74
2021/08/07 03:15:33;;;;;;;49.28;31.40;;;;;;;;;;5061737;28;20048;-73
2021/08/07 03:18:00;;;;;;;51.08;32.25;;;;;;;;;;5064071;28;20082;-73
2021/08/07 03:20:33;;;;;;;49.25;33.03;;;;;;;;;;5047218;28;20044;-74
2021/08/07 03:23:03;;;;;;;48.38;30.85;;;;;;;;;;5064337;28;20033;-73
2021/08/07 03:25:30;;;;;;;51.80;33.90;;;;;;;;;;5048731;28;20041;-76
2021/08/07 03:27:58;;;;;;;51.42;36.42;;;;;;;;;;5046632;28;20535;-73
2021/08/07 03:30:25;;;;;;;57.78;35.45;;;;;;;;;;5045815;28;20037;-75
2021/08/07 03:32:52;;;;;;;50.42;35.60;;;;;;;;;;5051729;28;20045;-74
2021/08/07 03:35:19;;;;;;;52.30;35.30;;;;;;;;;;5066245;28;20045;-73
2021/08/07 03:37:47;;;;;;;49.55;35.50;;;;;;;;;;5064054;28;20040;-73
2021/08/07 03:40:15;;;;;;;57.33;38.40;;;;;;;;;;5046965;28;20080;-74
2021/08/07 03:42:43;;;;;;;55.55;35.33;;;;;;;;;;5064403;28;20048;-73
2021/08/07 03:45:11;;;;;;;54.17;35.97;;;;;;;;;;5047087;28;20032;-76
2021/08/07 03:47:52;;;;;;;47.17;33.83;;;;;;;;;;5065326;28;20098;-73
2021/08/07 03:50:21;;;;;;;52.17;34.13;;;;;;;;;;5065079;28;20071;-74
2021/08/07 03:52:48;;;;;;;50.97;32.97;;;;;;;;;;5065159;28;20461;-74
2021/08/07 03:55:17;;;;;;;50.17;33.35;;;;;;;;;;5065377;28;20033;-74
2021/08/07 03:57:56;;;;;;;48.17;30.17;;;;;;;;;;5065269;28;20094;-73
2021/08/07 04:00:29;;;;;;;52.20;32.20;;;;;;;;;;5064712;28;20058;-73
2021/08/07 04:02:56;;;;;;;49.92;31.77;;;;;;;;;;5065576;28;20405;-73
2021/08/07 04:05:24;;;;;;;42.83;27.90;;;;;;;;;;5058034;28;20048;-74
2021/08/07 04:07:52;;;;;;;;;;;;;;;;;;5065489;28;20116;-73
2021/08/07 04:10:19;;;;;;;46.20;28.63;;;;;;;;;;5080226;28;19916;-74
2021/08/07 04:12:46;;;;;;;51.47;32.45;;;;;;;;;;5079598;28;20040;-74
2021/08/07 04:15:13;;;;;;;46.67;30.38;;;;;;;;;;5048179;28;20095;-73
2021/08/07 04:17:41;;;;;;;41.97;25.50;;;;;;;;;;5042915;28;20133;-73
2021/08/07 04:20:09;;;;;;;60.53;40.85;;;;;;;;;;5059936;28;20040;-76
2021/08/07 04:22:37;;;;;;;46.85;30.45;;;;;;;;;;5044910;28;20549;-73
2021/08/07 04:25:06;;;;;;;47.08;26.60;;;;;;;;;;5042875;28;20052;-74
2021/08/07 04:27:33;;;;;;;44.55;27.38;;;;;;;;;;5043197;28;20037;-72
2021/08/07 04:30:02;;;;;;;51.03;34.67;;;;;;;;;;5042496;28;20565;-73
2021/08/07 04:32:29;;;;;;;46.75;28.38;;;;;;;;;;5043916;28;20037;-73
2021/08/07 04:34:56;;;;;;;39.13;23.70;;;;;;;;;;5042719;28;20495;-73
2021/08/07 04:37:23;;;;;;;39.97;22.85;;;;;;;;;;5043944;28;20052;-74
2021/08/07 04:39:50;;;;;;;44.60;24.25;;;;;;;;;;5044243;28;20099;-74
2021/08/07 04:42:17;;;;;;;42.13;24.52;;;;;;;;;;5044479;28;20061;-73
2021/08/07 04:44:45;;;;;;;40.90;26.17;;;;;;;;;;5043274;28;20041;-73
2021/08/07 04:47:12;;;;;;;40.10;25.63;;;;;;;;;;5059215;28;20140;-73
2021/08/07 04:49:39;;;;;;;41.60;25.33;;;;;;;;;;5044077;28;20037;-73
2021/08/07 04:52:06;;;;;;;39.40;25.08;;;;;;;;;;5043813;28;20069;-75
2021/08/07 04:54:33;;;;;;;41.60;25.52;;;;;;;;;;5042846;28;20045;-76
2021/08/07 04:57:00;;;;;;;43.17;25.98;;;;;;;;;;5043806;28;20392;-73
2021/08/07 04:59:27;;;;;;;41.70;24.30;;;;;;;;;;5044010;28;20045;-73
2021/08/07 05:01:54;;;;;;;41.72;23.65;;;;;;;;;;5043909;28;20041;-74
2021/08/07 05:04:21;;;;;;;35.50;23.33;;;;;;;;;;5041911;28;20103;-75
2021/08/07 05:06:48;;;;;;;36.60;22.85;;;;;;;;;;5044175;28;20064;-73
2021/08/07 05:09:16;;;;;;;36.13;20.88;;;;;;;;;;5043412;28;20052;-74
2021/08/07 05:11:43;;;;;;;35.38;22.45;;;;;;;;;;5059102;28;20052;-73
2021/08/07 05:14:10;;;;;;;36.67;22.75;;;;;;;;;;5044071;28;20033;-73
2021/08/07 05:16:37;;;;;;;45.60;26.67;;;;;;;;;;5043168;28;20442;-74
2021/08/07 05:19:04;;;;;;;37.60;23.05;;;;;;;;;;5043064;28;20037;-73
2021/08/07 05:21:31;;;;;;;44.22;22.65;;;;;;;;;;5043338;28;20037;-73
2021/08/07 05:23:58;;;;;;;41.78;22.65;;;;;;;;;;5058789;28;20036;-74
2021/08/07 05:26:25;;;;;;;40.35;22.50;;;;;;;;;;5043461;28;20041;-73
2021/08/07 05:28:52;;;;;;;41.53;21.80;;;;;;;;;;5042152;28;20048;-75
2021/08/07 05:31:19;;;;;;;38.72;25.23;;;;;;;;;;5044498;28;20381;-74
2021/08/07 05:33:47;;;;;;;38.05;23.55;;;;;;;;;;5042927;28;20044;-73
2021/08/07 05:36:14;;;;;;;39.80;23.05;;;;;;;;;;5043875;28;20420;-73
2021/08/07 05:38:41;;;;;;;35.58;22.52;;;;;;;;;;5043400;28;20098;-73
2021/08/07 05:41:08;;;;;;;36.00;21.70;;;;;;;;;;5043195;28;20045;-75
2021/08/07 05:43:35;;;;;;;34.50;21.38;;;;;;;;;;5042315;28;20041;-74
2021/08/07 05:46:03;;;;;;;32.65;20.83;;;;;;;;;;5042893;28;20124;-73
2021/08/07 05:48:32;;;;;;;36.15;20.98;;;;;;;;;;5058338;28;20187;-74
2021/08/07 05:51:00;;;;;;;36.58;21.00;;;;;;;;;;5043463;28;20466;-73
2021/08/07 05:53:27;;;;;;;35.97;21.02;;;;;;;;;;5041500;28;20114;-74
2021/08/07 05:55:54;;;;;;;36.88;21.00;;;;;;;;;;5043152;28;20044;-73
2021/08/07 05:58:22;;;;;;;38.15;22.77;;;;;;;;;;5041332;28;20099;-73
2021/08/07 06:00:50;;;;;;;34.63;20.15;;;;;;;;;;5058429;28;20100;-77
2021/08/07 06:03:17;;;;;;;32.78;19.75;;;;;;;;;;5041667;28;20124;-74
2021/08/07 06:05:44;;;;;;;35.53;21.60;;;;;;;;;;5050320;28;20456;-73
2021/08/07 06:08:11;;;;;;;39.30;23.02;;;;;;;;;;5043724;28;20411;-74
2021/08/07 06:10:39;;;;;;;30.27;20.85;;;;;;;;;;5061591;28;20064;-73
2021/08/07 06:13:06;;;;;;;33.70;21.02;;;;;;;;;;5063184;28;20057;-74
2021/08/07 06:15:33;;;;;;;36.70;20.77;;;;;;;;;;5063219;28;20114;-73
2021/08/07 06:18:03;;;;;;;37.47;20.77;;;;;;;;;;5060811;28;20039;-73
2021/08/07 06:20:30;;;;;;;37.17;21.67;;;;;;;;;;5062076;28;20045;-73
2021/08/07 06:22:57;;;;;;;34.53;21.85;;;;;;;;;;5043388;28;20419;-73
2021/08/07 06:25:25;;;;;;;32.05;20.35;;;;;;;;;;5040869;28;20065;-73
2021/08/07 06:27:54;;;;;;;36.22;21.23;;;;;;;;;;5040627;28;20438;-74
2021/08/07 06:30:22;;;;;;;35.38;20.90;;;;;;;;;;5042953;28;20079;-73
2021/08/07 06:32:49;;;;;;;33.33;20.17;;;;;;;;;;5041224;28;20083;-73
2021/08/07 06:35:16;;;;;;;36.08;21.33;;;;;;;;;;5040699;28;20077;-75
2021/08/07 06:37:44;;;;;;;35.63;20.55;;;;;;;;;;5046301;28;20041;-73
2021/08/07 06:40:12;;;;;;;36.10;21.55;;;;;;;;;;5046075;28;20037;-74
2021/08/07 06:42:40;;;;;;;40.53;24.60;;;;;;;;;;5046428;28;20048;-74
2021/08/07 06:45:09;;;;;;;38.38;23.95;;;;;;;;;;5062001;28;20041;-74
2021/08/07 06:47:36;;;;;;;39.83;23.40;;;;;;;;;;5046111;28;20037;-74
2021/08/07 06:50:05;;;;;;;38.83;24.50;;;;;;;;;;5046031;28;20041;-76
2021/08/07 06:52:33;;;;;;;43.60;29.85;;;;;;;;;;5044728;28;20108;-74
2021/08/07 06:55:01;;;;;;;48.85;29.42;;;;;;;;;;5046221;28;20037;-74
2021/08/07 06:57:29;;;;;;;47.65;29.27;;;;;;;;;;5046009;28;20380;-74
2021/08/07 06:59:56;;;;;;;47.50;30.80;;;;;;;;;;5046122;28;20053;-73
2021/08/07 07:02:23;;;;;;;45.40;28.42;;;;;;;;;;5044313;28;20510;-73
2021/08/07 07:04:50;;;;;;;46.85;29.45;;;;;;;;;;5061371;28;21031;-74
2021/08/07 07:07:17;;;;;;;45.35;32.42;;;;;;;;;;5045970;28;20399;-73
2021/08/07 07:09:44;;;;;;;43.17;30.30;;;;;;;;;;5045365;28;20399;-74
2021/08/07 07:12:13;;;;;;;39.10;26.48;;;;;;;;;;5061295;28;20496;-73
2021/08/07 07:14:40;;;;;;;41.05;27.10;;;;;;;;;;5044248;28;20474;-73
2021/08/07 07:17:08;;;;;;;41.08;25.13;;;;;;;;;;5045433;28;20552;-76
2021/08/07 07:19:37;;;;;;;40.00;24.10;;;;;;;;;;5046122;28;20033;-73
2021/08/07 07:22:05;;;;;;;33.90;22.52;;;;;;;;;;5060976;28;20048;-73
2021/08/07 07:24:32;;;;;;;34.78;23.52;;;;;;;;;;5043914;28;20856;-73
2021/08/07 07:27:01;;;;;;;31.75;21.20;;;;;;;;;;5044215;28;20120;-73
2021/08/07 07:29:28;;;;;;;31.83;20.63;;;;;;;;;;5046237;28;20553;-73
2021/08/07 07:31:55;;;;;;;30.33;18.27;;;;;;;;;;5045450;28;20051;-73
2021/08/07 07:34:22;;;;;;;30.67;16.40;;;;;;;;;;5044238;28;20049;-76
2021/08/07 07:36:49;;;;;;;22.55;16.40;;;;;;;;;;5044881;28;20090;-73
2021/08/07 07:39:16;;;;;;;25.98;15.32;;;;;;;;;;5045201;28;20040;-73
2021/08/07 07:41:43;;;;;;;29.52;16.73;;;;;;;;;;5045357;28;20504;-76
2021/08/07 07:44:10;;;;;;;29.27;18.90;;;;;;;;;;5060147;28;20049;-74
2021/08/07 07:46:38;;;;;;;30.17;19.27;;;;;;;;;;5045698;28;20037;-73
2021/08/07 07:49:05;;;;;;;27.75;18.83;;;;;;;;;;5044842;28;20060;-76
2021/08/07 07:51:32;;;;;;;26.85;19.08;;;;;;;;;;5043835;28;20037;-73
2021/08/07 07:53:59;;;;;;;28.38;17.33;;;;;;;;;;5045482;28;20033;-74
2021/08/07 07:56:41;;;;;;;31.42;17.80;;;;;;;;;;5040038;28;20083;-75
2021/08/07 07:59:24;;;;;;;31.05;18.38;;;;;;;;;;5005993;28;20094;-73
2021/08/07 08:02:04;;;;;;;28.95;17.60;;;;;;;;;;5013753;28;20096;-74
2021/08/07 08:04:40;;;;;;;26.77;17.77;;;;;;;;;;5051452;28;20045;-73
2021/08/07 08:07:16;;;;;;;33.08;19.42;;;;;;;;;;5024661;28;20037;-73
2021/08/07 08:10:25;;;;;;;33.13;19.45;;;;;;;;;;5017742;28;20088;-74
2021/08/07 08:13:15;;;;;;;26.70;17.23;;;;;;;;;;4944758;28;20041;-73
2021/08/07 08:15:42;;;;;;;27.02;19.52;;;;;;;;;;5015629;28;20099;-73
2021/08/07 08:18:11;;;;;;;28.25;18.67;;;;;;;;;;5028252;28;20045;-74
2021/08/07 08:20:39;;;;;;;25.42;18.33;;;;;;;;;;5045006;28;20132;-74
2021/08/07 08:23:06;;;;;;;28.35;18.88;;;;;;;;;;5045398;28;20055;-73
2021/08/07 08:25:33;;;;;;;31.55;18.83;;;;;;;;;;5044947;28;20033;-73
2021/08/07 08:28:01;;;;;;;31.42;17.95;;;;;;;;;;5044996;28;20139;-73
2021/08/07 08:30:28;;;;;;;37.28;22.30;;;;;;;;;;5059872;28;20060;-73
2021/08/07 08:32:55;;;;;;;42.30;23.17;;;;;;;;;;5044884;28;20040;-73
2021/08/07 08:35:23;;;;;;;37.47;24.30;;;;;;;;;;5045125;28;20044;-74
2021/08/07 08:37:50;;;;;;;39.35;24.02;;;;;;;;;;5043264;28;20128;-73
2021/08/07 08:40:17;;;;;;;40.00;25.08;;;;;;;;;;5043064;28;20045;-74
2021/08/07 08:42:45;;;;;;;39.53;24.70;;;;;;;;;;5045216;28;20048;-73
2021/08/07 08:45:15;;;;;;;38.80;24.25;;;;;;;;;;5042839;28;20045;-73
2021/08/07 08:47:46;;;;;;;36.08;23.77;;;;;;;;;;5042927;28;20056;-75
2021/08/07 08:50:21;;;;;;;42.65;24.60;;;;;;;;;;5042020;28;20077;-75
2021/08/07 08:52:50;;;;;;;42.33;23.35;;;;;;;;;;5044021;28;20384;-73
2021/08/07 08:55:19;;;;;;;42.38;24.27;;;;;;;;;;5044073;28;20091;-74
2021/08/07 08:57:47;;;;;;;;;;;;;;;;;;5045119;28;20048;-73
2021/08/07 09:00:15;;;;;;;37.15;22.80;;;;;;;;;;5058011;28;19920;-73
2021/08/07 09:02:43;;;;;;;40.65;24.10;;;;;;;;;;5043928;28;20110;-73
2021/08/07 09:05:11;;;;;;;38.53;22.85;;;;;;;;;;5025609;28;20037;-73
2021/08/07 09:07:38;;;;;;;38.15;22.58;;;;;;;;;;5044031;28;20044;-73
2021/08/07 09:10:07;;;;;;;39.25;25.23;;;;;;;;;;5058960;28;20101;-75
2021/08/07 09:12:59;;;;;;;37.90;25.02;;;;;;;;;;5026309;28;20036;-75
2021/08/07 09:15:37;;;;;;;42.30;25.33;;;;;;;;;;5041807;28;20045;-74
2021/08/07 09:18:24;;;;;;;39.97;25.55;;;;;;;;;;5041651;28;20048;-73
2021/08/07 09:20:52;;;;;;;39.95;26.08;;;;;;;;;;5043780;28;20112;-77
2021/08/07 09:23:32;;;;;;;39.53;26.20;;;;;;;;;;5042144;28;20033;-75
2021/08/07 09:26:16;;;;;;;38.95;24.85;;;;;;;;;;5055956;28;20036;-73
2021/08/07 09:28:55;;;;;;;38.38;21.90;;;;;;;;;;5042935;28;20140;-73
2021/08/07 09:31:24;;;;;;;40.13;24.42;;;;;;;;;;5044214;28;20518;-74
2021/08/07 09:34:16;;;;;;;39.33;23.02;;;;;;;;;;5041591;28;20064;-73
2021/08/07 09:36:45;;;;;;;35.00;20.40;;;;;;;;;;5052733;28;20094;-74
2021/08/07 09:39:14;;;;;;;35.03;20.80;;;;;;;;;;5078179;28;20059;-74
2021/08/07 09:41:58;;;;;;;32.28;19.60;;;;;;;;;;5062994;28;20135;-73
2021/08/07 09:44:26;;;;;;;34.33;19.35;;;;;;;;;;5061500;28;20036;-73
2021/08/07 09:47:12;;;;;;;34.03;19.58;;;;;;;;;;5058106;28;20080;-75
2021/08/07 09:49:42;;;;;;;34.80;21.02;;;;;;;;;;5035224;28;20041;-75
2021/08/07 09:52:10;;;;;;;31.20;20.00;;;;;;;;;;5027879;28;20037;-72
2021/08/07 09:54:45;;;;;;;33.67;20.10;;;;;;;;;;5018085;28;20486;-73
2021/08/07 09:57:30;;;;;;;35.55;19.30;;;;;;;;;;5061724;28;20400;-73
2021/08/07 09:59:57;;;;;;;28.60;19.55;;;;;;;;;;5061176;28;20439;-76
2021/08/07 10:02:31;;;;;;;32.13;20.02;;;;;;;;;;5062836;28;20048;-73
2021/08/07 10:04:59;;;;;;;29.67;19.98;;;;;;;;;;5046254;28;20119;-75
2021/08/07 10:07:27;;;;;;;34.75;19.80;;;;;;;;;;5025384;28;20041;-75
2021/08/07 10:09:56;;;;;;;30.35;19.20;;;;;;;;;;5061648;28;20102;-76
2021/08/07 10:12:24;;;;;;;32.42;19.75;;;;;;;;;;5059507;28;20581;-73
2021/08/07 10:14:52;;;;;;;32.65;20.27;;;;;;;;;;5042920;28;20492;-76
2021/08/07 10:17:24;;;;;;;34.08;18.90;;;;;;;;;;5050201;28;20525;-75
2021/08/07 10:19:52;;;;;;;32.58;19.42;;;;;;;;;;5063067;28;20535;-72
2021/08/07 10:22:20;;;;;;;34.58;20.08;;;;;;;;;;5060613;28;20514;-73
2021/08/07 10:24:48;;;;;;;35.97;20.17;;;;;;;;;;5061146;28;20490;-72
2021/08/07 10:27:18;;;;;;;38.53;20.80;;;;;;;;;;5063211;28;20071;-73
2021/08/07 10:29:48;;;;;;;35.28;19.83;;;;;;;;;;5053785;28;21476;-72
2021/08/07 10:32:16;;;;;;;33.90;18.02;;;;;;;;;;5055494;28;20049;-73
2021/08/07 10:34:49;;;;;;;36.17;19.67;;;;;;;;;;5050839;28;20049;-72
2021/08/07 10:37:16;;;;;;;29.30;17.98;;;;;;;;;;5047231;28;20060;-73
2021/08/07 10:39:43;;;;;;;31.73;18.02;;;;;;;;;;5062255;28;20056;-73
2021/08/07 10:42:16;;;;;;;28.35;18.77;;;;;;;;;;5062612;28;20040;-72
2021/08/07 10:44:45;;;;;;;32.03;18.92;;;;;;;;;;5056173;28;20045;-72
2021/08/07 10:47:13;;;;;;;32.42;18.77;;;;;;;;;;5050705;28;20065;-72
2021/08/07 10:49:41;;;;;;;32.47;20.15;;;;;;;;;;5042219;28;20043;-73
2021/08/07 10:52:23;;;;;;;31.63;19.85;;;;;;;;;;5045185;28;20045;-73
2021/08/07 10:54:55;;;;;;;35.45;18.77;;;;;;;;;;5068279;28;20526;-73
2021/08/07 10:57:44;;;;;;;36.03;19.95;;;;;;;;;;5055572;28;20045;-76
2021/08/07 11:00:19;;;;;;;29.15;19.05;;;;;;;;;;5039724;28;20511;-73
2021/08/07 11:02:47;;;;;;;33.47;18.70;;;;;;;;;;5042395;28;20586;-74
2021/08/07 11:05:15;;;;;;;38.42;21.23;;;;;;;;;;5039935;28;20044;-74
2021/08/07 11:07:42;;;;;;;38.22;20.35;;;;;;;;;;5053151;28;20059;-74
2021/08/07 11:10:15;;;;;;;36.13;19.67;;;;;;;;;;5069401;28;20036;-74
2021/08/07 11:12:45;;;;;;;40.85;20.88;;;;;;;;;;5042793;28;20068;-74
2021/08/07 11:15:14;;;;;;;38.15;23.38;;;;;;;;;;5043118;28;20403;-74
2021/08/07 11:17:45;;;;;;;36.50;21.67;;;;;;;;;;5061976;28;20575;-74
2021/08/07 11:20:15;;;;;;;37.22;22.15;;;;;;;;;;5034205;28;20044;-73
2021/08/07 11:22:44;;;;;;;43.17;22.58;;;;;;;;;;5067911;28;20063;-76
2021/08/07 11:25:20;;;;;;;40.75;21.63;;;;;;;;;;5055643;28;20551;-73
2021/08/07 11:27:48;;;;;;;35.55;21.90;;;;;;;;;;5039847;28;20040;-72
2021/08/07 11:30:25;;;;;;;43.38;23.45;;;;;;;;;;5065718;28;20125;-73
2021/08/07 11:32:58;;;;;;;42.10;23.80;;;;;;;;;;5060812;28;20447;-74
2021/08/07 11:35:31;;;;;;;36.38;22.65;;;;;;;;;;5073861;28;20518;-73
2021/08/07 11:38:13;;;;;;;44.42;23.70;;;;;;;;;;5057128;28;20144;-73
2021/08/07 11:40:53;;;;;;;37.38;20.92;;;;;;;;;;5062567;28;20056;-73
2021/08/07 11:43:26;;;;;;;39.72;22.67;;;;;;;;;;5063222;28;20098;-72
2021/08/07 11:45:58;;;;;;;36.83;21.98;;;;;;;;;;5063801;28;20068;-72
2021/08/07 11:48:28;;;;;;;32.42;21.10;;;;;;;;;;5060715;28;20448;-74
2021/08/07 11:50:57;;;;;;;41.88;20.63;;;;;;;;;;5062951;28;20036;-75
2021/08/07 11:53:26;;;;;;;37.13;21.08;;;;;;;;;;5063447;28;20041;-74
2021/08/07 11:56:07;;;;;;;26.23;16.88;;;;;;;;;;5063823;28;20037;-74
2021/08/07 11:58:42;;;;;;;27.38;14.25;;;;;;;;;;5056512;28;20064;-73
2021/08/07 12:01:09;;;;;;;23.58;13.15;;;;;;;;;;5058671;28;20064;-74
2021/08/07 12:03:48;;;;;;;22.75;12.52;;;;;;;;;;5062978;28;20053;-74
2021/08/07 12:06:17;;;;;;;21.85;12.60;;;;;;;;;;5059919;28;20044;-72
2021/08/07 12:08:45;;;;;;;19.92;11.57;;;;;;;;;;5062845;28;20132;-74
2021/08/07 12:11:14;;;;;;;22.05;12.18;;;;;;;;;;5061995;28;20041;-73
2021/08/07 12:13:55;;;;;;;28.23;15.43;;;;;;;;;;5063193;28;20036;-73
2021/08/07 12:16:37;;;;;;;23.90;15.18;;;;;;;;;;5059291;28;20131;-72
2021/08/07 12:19:21;;;;;;;22.25;15.65;;;;;;;;;;5060177;28;20041;-72
2021/08/07 12:21:50;;;;;;;24.42;16.08;;;;;;;;;;5060565;28;20044;-72
2021/08/07 12:24:21;;;;;;;;;;;;;;;;;;5063434;28;20098;-72
2021/08/07 12:26:52;;;;;;;22.50;15.00;;;;;;;;;;5058972;28;19924;-73
2021/08/07 12:29:22;;;;;;;21.73;14.80;;;;;;;;;;5060698;28;20044;-73
2021/08/07 12:31:59;;;;;;;21.58;16.33;;;;;;;;;;5060397;28;20033;-73
2021/08/07 12:34:30;;;;;;;20.58;14.77;;;;;;;;;;5060379;28;20037;-73
2021/08/07 12:37:02;;;;;;;23.98;16.77;;;;;;;;;;5062418;28;20415;-73
2021/08/07 12:39:41;;;;;;;23.02;15.45;;;;;;;;;;5060093;28;20044;-73
2021/08/07 12:42:09;;;;;;;20.52;15.10;;;;;;;;;;5064967;28;20041;-72
2021/08/07 12:44:36;;;;;;;22.27;14.80;;;;;;;;;;5060122;28;20558;-73
2021/08/07 12:47:04;;;;;;;25.75;16.08;;;;;;;;;;5062532;28;20067;-75
2021/08/07 12:49:43;;;;;;;22.35;15.82;;;;;;;;;;5060438;28;20068;-72
2021/08/07 12:52:18;;;;;;;22.67;16.60;;;;;;;;;;5060199;28;20490;-74
2021/08/07 12:55:04;;;;;;;23.45;14.55;;;;;;;;;;5035459;28;20115;-75
2021/08/07 12:57:31;;;;;;;22.17;13.75;;;;;;;;;;5058516;28;20098;-72
2021/08/07 12:59:59;;;;;;;21.15;13.55;;;;;;;;;;5052531;28;20396;-74
2021/08/07 13:02:26;;;;;;;10.73;7.30;;;;;;;;;;5063910;28;20045;-73
2021/08/07 13:04:56;;;;;;;14.00;10.50;;;;;;;;;;5061800;28;20086;-73
2021/08/07 13:07:37;;;;;;;10.82;7.80;;;;;;;;;;5060482;28;20041;-74
2021/08/07 13:10:22;;;;;;;18.40;10.93;;;;;;;;;;5062025;28;20044;-73
2021/08/07 13:12:53;;;;;;;13.38;9.38;;;;;;;;;;5058363;28;20097;-73
2021/08/07 13:15:22;;;;;;;10.82;8.20;;;;;;;;;;5057994;28;20063;-75
2021/08/07 13:17:55;;;;;;;12.98;7.88;;;;;;;;;;5059668;28;20049;-73
2021/08/07 13:20:39;;;;;;;12.15;7.60;;;;;;;;;;5057875;28;20052;-73
2021/08/07 13:23:07;;;;;;;13.02;8.80;;;;;;;;;;5058878;28;20415;-74
2021/08/07 13:25:35;;;;;;;11.40;7.45;;;;;;;;;;5060539;28;20049;-74
2021/08/07 13:28:16;;;;;;;13.93;7.82;;;;;;;;;;5063237;28;20032;-76
2021/08/07 13:30:55;;;;;;;11.18;7.20;;;;;;;;;;5060103;28;20529;-74
2021/08/07 13:33:31;;;;;;;9.80;6.13;;;;;;;;;;5061888;28;20068;-73
2021/08/07 13:35:59;;;;;;;11.18;5.97;;;;;;;;;;5060973;28;20048;-73
2021/08/07 13:38:28;;;;;;;8.57;5.90;;;;;;;;;;5060759;28;20457;-73
2021/08/07 13:41:25;;;;;;;8.05;5.38;;;;;;;;;;5062185;28;20469;-74
2021/08/07 13:43:52;;;;;;;6.60;4.55;;;;;;;;;;5050730;28;20402;-74
2021/08/07 13:46:19;;;;;;;7.78;4.50;;;;;;;;;;5062872;28;20127;-75
2021/08/07 13:48:46;;;;;;;9.70;4.57;;;;;;;;;;5063904;28;20044;-74
2021/08/07 13:51:13;;;;;;;6.80;4.10;;;;;;;;;;5063610;28;20097;-77
2021/08/07 13:53:41;;;;;;;7.43;4.28;;;;;;;;;;5064087;28;20056;-74
2021/08/07 13:56:08;;;;;;;6.75;3.88;;;;;;;;;;5063399;28;20128;-74
2021/08/07 13:58:35;;;;;;;8.93;3.97;;;;;;;;;;5060840;28;20056;-77
2021/08/07 14:01:02;;;;;;;10.13;4.55;;;;;;;;;;5063317;28;20045;-74
2021/08/07 14:03:30;;;;;;;7.63;4.55;;;;;;;;;;5063449;28;20498;-74
2021/08/07 14:05:57;;;;;;;8.52;5.25;;;;;;;;;;5063685;28;20529;-74
2021/08/07 14:08:24;;;;;;;10.55;6.32;;;;;;;;;;5063353;28;20860;-73
2021/08/07 14:10:51;;;;;;;9.85;5.97;;;;;;;;;;5063033;28;20483;-75
2021/08/07 14:13:19;;;;;;;11.30;6.15;;;;;;;;;;5063617;28;20075;-73
2021/08/07 14:15:46;;;;;;;;;;;;;;;;;;5062165;28;20032;-73
2021/08/07 14:18:13;;;;;;;8.80;5.53;;;;;;;;;;5063224;28;19983;-75
2021/08/07 14:20:42;;;;;;;8.82;6.18;;;;;;;;;;5063797;28;20074;-73
2021/08/07 14:23:09;;;;;;;10.35;5.22;;;;;;;;;;5063094;28;20080;-74
2021/08/07 14:25:36;;;;;;;10.23;5.93;;;;;;;;;;5063208;28;20052;-74
2021/08/07 14:28:04;;;;;;;8.15;5.78;;;;;;;;;;5063270;28;20058;-77
2021/08/07 14:30:31;;;;;;;10.85;6.57;;;;;;;;;;5062945;28;20521;-74
2021/08/07 14:32:59;;;;;;;10.50;5.65;;;;;;;;;;5062899;28;20044;-74
2021/08/07 14:35:26;;;;;;;9.32;6.53;;;;;;;;;;5061285;28;20040;-74
2021/08/07 14:37:53;;;;;;;11.00;6.57;;;;;;;;;;5063242;28;20429;-74
2021/08/07 14:40:21;;;;;;;13.48;6.82;;;;;;;;;;5063405;28;20044;-74